createdAt,value
2023-01-09T00:00:59.616Z,63.09
2023-01-09T00:03:26.634Z,63.08
2023-01-09T00:05:53.646Z,62.97
2023-01-09T00:08:20.741Z,62.76
2023-01-09T00:10:50.027Z,62.88
2023-01-09T00:13:18.402Z,62.16
2023-01-09T00:15:45.551Z,62.65
2023-01-09T00:18:13.162Z,62.82
2023-01-09T00:20:40.439Z,62.32
2023-01-09T00:23:07.528Z,62.95
2023-01-09T00:25:34.606Z,63.33
2023-01-09T00:28:01.987Z,63.18
2023-01-09T00:30:29.245Z,63.13
2023-01-09T00:32:56.535Z,63.41
2023-01-09T00:35:25.620Z,62.60
2023-01-09T00:37:52.653Z,62.64
2023-01-09T00:40:20.340Z,62.07
2023-01-09T00:42:53.584Z,61.65
2023-01-09T00:45:29.162Z,61.51
2023-01-09T00:48:04.470Z,61.32
2023-01-09T00:50:33.192Z,60.69
2023-01-09T00:53:03.822Z,61.08
2023-01-09T00:55:31.113Z,61.03
2023-01-09T00:57:58.155Z,61.58
2023-01-09T01:00:25.213Z,61.56
2023-01-09T01:02:52.304Z,61.65
2023-01-09T01:05:37.865Z,62.03
2023-01-09T01:08:13.187Z,62.13
2023-01-09T01:10:40.840Z,61.83
2023-01-09T01:13:08.332Z,61.92
2023-01-09T01:15:35.342Z,62.19
2023-01-09T01:18:02.342Z,61.94
2023-01-09T01:20:29.362Z,62.27
2023-01-09T01:22:56.323Z,62.72
2023-01-09T01:25:23.564Z,62.24
2023-01-09T01:27:50.651Z,62.85
2023-01-09T01:30:18.604Z,63.34
2023-01-09T01:32:45.607Z,63.34
2023-01-09T01:35:18.765Z,63.49
2023-01-09T01:37:55.411Z,63.93
2023-01-09T01:40:22.353Z,63.51
2023-01-09T01:42:51.321Z,63.86
2023-01-09T01:45:36.200Z,63.89
2023-01-09T01:48:06.436Z,63.55
2023-01-09T01:50:39.870Z,63.75
2023-01-09T01:53:15.516Z,62.84
2023-01-09T01:55:54.927Z,63.01
2023-01-09T01:58:22.104Z,63.42
2023-01-09T02:00:49.169Z,62.77
2023-01-09T02:03:19.293Z,62.31
2023-01-09T02:05:46.289Z,62.23
2023-01-09T02:08:13.833Z,61.93
2023-01-09T02:10:41.321Z,62.42
2023-01-09T02:13:10.108Z,63.00
2023-01-09T02:15:56.852Z,62.88
2023-01-09T02:18:45.517Z,62.71
2023-01-09T02:21:19.316Z,62.72
2023-01-09T02:24:10.024Z,61.78
2023-01-09T02:26:57.954Z,61.61
2023-01-09T02:29:43.512Z,61.44
2023-01-09T02:32:38.454Z,61.66
2023-01-09T02:35:32.829Z,61.87
2023-01-09T02:38:18.465Z,61.38
2023-01-09T02:40:56.610Z,61.72
2023-01-09T02:43:24.616Z,61.80
2023-01-09T02:45:51.611Z,62.41
2023-01-09T02:48:18.677Z,62.08
2023-01-09T02:51:00.213Z,62.19
2023-01-09T02:53:53.103Z,61.87
2023-01-09T02:56:38.953Z,62.10
2023-01-09T02:59:12.013Z,62.48
2023-01-09T03:01:54.213Z,62.11
2023-01-09T03:04:56.697Z,62.14
2023-01-09T03:07:45.549Z,61.86
2023-01-09T03:10:20.240Z,61.72
2023-01-09T03:13:03.455Z,61.44
2023-01-09T03:15:37.499Z,62.33
2023-01-09T03:18:07.515Z,62.09
2023-01-09T03:20:35.552Z,61.53
2023-01-09T03:23:05.578Z,61.97
2023-01-09T03:25:33.109Z,61.70
2023-01-09T03:28:14.450Z,61.60
2023-01-09T03:30:41.488Z,61.43
2023-01-09T03:33:08.676Z,61.43
2023-01-09T03:35:35.657Z,61.46
2023-01-09T03:38:02.731Z,61.48
2023-01-09T03:40:29.789Z,61.85
2023-01-09T03:42:56.734Z,61.55
2023-01-09T03:45:23.715Z,61.44
2023-01-09T03:47:52.876Z,61.93
2023-01-09T03:50:20.094Z,61.29
2023-01-09T03:52:51.080Z,61.26
2023-01-09T03:55:18.087Z,61.13
2023-01-09T03:57:45.089Z,61.06
2023-01-09T04:00:13.130Z,61.38
2023-01-09T04:02:40.147Z,61.57
2023-01-09T04:05:07.991Z,61.22
2023-01-09T04:07:35.015Z,61.43
2023-01-09T04:10:01.965Z,61.02
2023-01-09T04:12:29.889Z,61.25
2023-01-09T04:14:56.921Z,60.92
2023-01-09T04:17:23.891Z,61.03
2023-01-09T04:19:50.979Z,61.46
2023-01-09T04:22:17.944Z,61.00
2023-01-09T04:24:44.869Z,61.33
2023-01-09T04:27:13.051Z,61.33
2023-01-09T04:29:40.054Z,61.45
2023-01-09T04:32:07.035Z,60.93
2023-01-09T04:34:33.997Z,61.25
2023-01-09T04:37:01.052Z,61.13
2023-01-09T04:39:28.078Z,61.52
2023-01-09T04:41:55.094Z,61.42
2023-01-09T04:44:26.446Z,61.03
2023-01-09T04:46:55.581Z,61.80
2023-01-09T04:49:23.196Z,61.59
2023-01-09T04:51:50.203Z,61.28
2023-01-09T04:54:17.383Z,61.23
2023-01-09T04:56:44.400Z,61.86
2023-01-09T04:59:11.502Z,61.49
2023-01-09T05:01:38.694Z,61.54
2023-01-09T05:04:06.784Z,61.60
2023-01-09T05:06:36.814Z,61.96
2023-01-09T05:09:03.900Z,62.25
2023-01-09T05:11:30.913Z,61.91
2023-01-09T05:13:57.850Z,62.47
2023-01-09T05:16:24.932Z,62.42
2023-01-09T05:18:56.640Z,62.04
2023-01-09T05:21:27.628Z,62.03
2023-01-09T05:23:54.668Z,61.84
2023-01-09T05:26:25.395Z,61.93
2023-01-09T05:28:53.659Z,61.94
2023-01-09T05:31:21.005Z,61.83
2023-01-09T05:33:48.074Z,61.54
2023-01-09T05:36:15.619Z,61.75
2023-01-09T05:38:42.848Z,61.67
2023-01-09T05:41:10.044Z,61.55
2023-01-09T05:43:37.021Z,61.45
2023-01-09T05:46:04.010Z,61.79
2023-01-09T05:48:30.984Z,61.67
2023-01-09T05:50:57.917Z,61.20
2023-01-09T05:53:24.927Z,61.12
2023-01-09T05:55:51.923Z,61.03
2023-01-09T05:58:18.911Z,60.98
2023-01-09T06:00:45.903Z,61.09
2023-01-09T06:03:12.991Z,61.10
2023-01-09T06:05:40.014Z,60.68
2023-01-09T06:08:06.992Z,60.58
2023-01-09T06:10:33.923Z,61.13
2023-01-09T06:13:00.955Z,61.48
2023-01-09T06:15:28.106Z,61.28
2023-01-09T06:17:55.100Z,61.87
2023-01-09T06:20:22.091Z,61.85
2023-01-09T06:22:52.121Z,62.60
2023-01-09T06:25:19.315Z,61.33
2023-01-09T06:27:46.324Z,61.03
2023-01-09T06:30:13.734Z,60.94
2023-01-09T06:32:40.703Z,61.52
2023-01-09T06:35:08.121Z,60.76
2023-01-09T06:37:35.183Z,60.80
2023-01-09T06:40:02.349Z,61.50
2023-01-09T06:42:30.783Z,61.46
2023-01-09T06:44:57.743Z,61.25
2023-01-09T06:47:24.769Z,61.27
2023-01-09T06:49:51.738Z,61.60
2023-01-09T06:52:18.697Z,61.54
2023-01-09T06:54:45.638Z,61.54
2023-01-09T06:57:14.623Z,60.98
2023-01-09T06:59:41.630Z,61.54
2023-01-09T07:02:18.132Z,60.96
2023-01-09T07:04:45.127Z,60.79
2023-01-09T07:07:12.066Z,60.66
2023-01-09T07:09:38.979Z,61.29
2023-01-09T07:12:06.664Z,60.94
2023-01-09T07:14:34.234Z,60.88
2023-01-09T07:17:01.238Z,60.65
2023-01-09T07:19:28.251Z,60.85
2023-01-09T07:21:55.225Z,60.38
2023-01-09T07:24:22.205Z,60.56
2023-01-09T07:26:49.186Z,60.37
2023-01-09T07:29:16.182Z,60.33
2023-01-09T07:31:43.173Z,59.82
2023-01-09T07:34:10.187Z,59.53
2023-01-09T07:36:37.166Z,60.14
2023-01-09T07:39:04.348Z,60.05
2023-01-09T07:41:31.281Z,59.80
2023-01-09T07:43:58.360Z,59.59
2023-01-09T07:46:25.419Z,59.50
2023-01-09T07:48:52.413Z,59.54
2023-01-09T07:51:19.384Z,59.45
2023-01-09T07:53:46.349Z,59.03
2023-01-09T07:56:13.310Z,58.28
2023-01-09T07:58:41.050Z,58.26
2023-01-09T08:01:08.032Z,58.51
2023-01-09T08:03:35.219Z,58.66
2023-01-09T08:06:02.228Z,57.99
2023-01-09T08:08:29.243Z,58.68
2023-01-09T08:10:56.728Z,57.94
2023-01-09T08:13:23.699Z,58.13
2023-01-09T08:15:50.702Z,57.74
2023-01-09T08:18:17.685Z,57.96
2023-01-09T08:20:44.620Z,57.35
2023-01-09T08:23:11.576Z,57.55
2023-01-09T08:25:38.592Z,57.81
2023-01-09T08:28:05.646Z,57.95
2023-01-09T08:30:32.623Z,58.12
2023-01-09T08:32:59.610Z,58.11
2023-01-09T08:35:26.588Z,58.52
2023-01-09T08:37:53.646Z,58.53
2023-01-09T08:40:20.607Z,58.55
2023-01-09T08:43:06.438Z,58.56
2023-01-09T08:45:53.076Z,58.08
2023-01-09T08:48:20.257Z,57.99
2023-01-09T08:50:47.409Z,57.88
2023-01-09T08:53:15.526Z,58.35
2023-01-09T08:55:43.343Z,57.48
2023-01-09T08:58:10.575Z,57.54
2023-01-09T09:00:37.831Z,57.49
2023-01-09T09:03:05.256Z,57.40
2023-01-09T09:05:33.197Z,57.26
2023-01-09T09:08:00.277Z,57.04
2023-01-09T09:10:29.084Z,57.00
2023-01-09T09:12:58.427Z,57.07
2023-01-09T09:15:26.989Z,56.95
2023-01-09T09:17:59.162Z,57.17
2023-01-09T09:20:29.511Z,57.02
2023-01-09T09:22:56.581Z,57.46
2023-01-09T09:25:23.627Z,56.83
2023-01-09T09:27:51.217Z,56.90
2023-01-09T09:30:19.947Z,56.49
2023-01-09T09:32:47.067Z,56.65
2023-01-09T09:35:14.506Z,56.21
2023-01-09T09:37:42.111Z,55.92
2023-01-09T09:40:20.165Z,56.29
2023-01-09T09:43:26.659Z,55.89
2023-01-09T09:46:12.146Z,56.43
2023-01-09T09:48:48.679Z,56.65
2023-01-09T09:51:15.472Z,56.85
2023-01-09T09:53:56.257Z,57.31
2023-01-09T09:56:24.268Z,57.02
2023-01-09T09:58:57.590Z,57.95
2023-01-09T10:01:49.105Z,57.85
2023-01-09T10:04:19.198Z,57.75
2023-01-09T10:06:50.427Z,57.46
2023-01-09T10:09:50.000Z,56.55
2023-01-09T10:12:42.569Z,56.60
2023-01-09T10:15:26.722Z,56.54
2023-01-09T10:18:24.819Z,56.29
2023-01-09T10:20:56.602Z,56.12
2023-01-09T10:23:48.233Z,56.07
2023-01-09T10:26:25.928Z,56.06
2023-01-09T10:29:08.016Z,56.19
2023-01-09T10:31:40.928Z,56.77
2023-01-09T10:34:21.576Z,56.42
2023-01-09T10:36:57.595Z,57.30
2023-01-09T10:39:47.132Z,57.52
2023-01-09T10:42:48.079Z,57.35
2023-01-09T10:45:20.382Z,57.09
2023-01-09T10:47:48.543Z,56.46
2023-01-09T10:50:22.943Z,55.98
2023-01-09T10:52:52.120Z,55.97
2023-01-09T10:55:41.405Z,56.15
2023-01-09T10:58:13.598Z,55.84
2023-01-09T11:00:41.799Z,56.23
2023-01-09T11:03:18.590Z,55.91
2023-01-09T11:05:52.031Z,55.08
2023-01-09T11:08:23.129Z,54.93
2023-01-09T11:10:55.527Z,54.76
2023-01-09T11:13:25.302Z,55.41
2023-01-09T11:16:17.597Z,55.19
2023-01-09T11:18:56.365Z,55.76
2023-01-09T11:21:23.323Z,55.86
2023-01-09T11:23:50.542Z,55.46
2023-01-09T11:26:28.748Z,55.73
2023-01-09T11:29:14.926Z,56.64
2023-01-09T11:31:44.194Z,56.04
2023-01-09T11:34:26.479Z,56.35
2023-01-09T11:37:02.479Z,56.41
2023-01-09T11:39:32.861Z,56.51
2023-01-09T11:42:04.685Z,56.59
2023-01-09T11:44:33.134Z,56.98
2023-01-09T11:47:00.238Z,56.89
2023-01-09T11:49:30.294Z,57.01
2023-01-09T11:52:21.221Z,56.81
2023-01-09T11:55:05.986Z,56.94
2023-01-09T11:57:34.707Z,57.08
2023-01-09T12:00:10.316Z,57.24
2023-01-09T12:02:53.350Z,57.69
2023-01-09T12:05:45.381Z,57.59
2023-01-09T12:08:29.373Z,57.67
2023-01-09T12:11:40.813Z,58.04
2023-01-09T12:14:46.091Z,58.40
2023-01-09T12:17:33.582Z,58.70
2023-01-09T12:20:07.224Z,59.52
2023-01-09T12:23:12.235Z,60.11
2023-01-09T12:26:10.995Z,60.80
2023-01-09T12:29:13.268Z,61.00
2023-01-09T12:32:13.372Z,60.88
2023-01-09T12:35:00.656Z,60.79
2023-01-09T12:37:53.059Z,61.12
2023-01-09T12:40:56.962Z,61.46
2023-01-09T12:43:53.043Z,61.38
2023-01-09T12:46:22.027Z,61.83
2023-01-09T12:49:20.072Z,61.83
2023-01-09T12:52:17.548Z,62.31
2023-01-09T12:54:44.322Z,62.74
2023-01-09T12:57:21.747Z,62.72
2023-01-09T12:59:54.240Z,62.50
2023-01-09T13:02:42.552Z,62.65
2023-01-09T13:05:23.585Z,62.55
2023-01-09T13:08:09.364Z,62.70
2023-01-09T13:10:51.618Z,62.28
2023-01-09T13:13:50.018Z,63.00
2023-01-09T13:16:33.215Z,62.84
2023-01-09T13:19:25.373Z,61.62
2023-01-09T13:21:53.697Z,61.63
2023-01-09T13:24:31.407Z,61.58
2023-01-09T13:27:02.366Z,61.31
2023-01-09T13:29:45.660Z,61.04
2023-01-09T13:32:18.266Z,60.81
2023-01-09T13:34:48.921Z,60.97
2023-01-09T13:37:32.158Z,62.37
2023-01-09T13:40:02.597Z,62.20
2023-01-09T13:42:39.134Z,61.50
2023-01-09T13:45:11.217Z,62.29
2023-01-09T13:47:38.625Z,62.19
2023-01-09T13:50:09.270Z,62.58
2023-01-09T13:52:40.970Z,61.93
2023-01-09T13:55:16.669Z,61.88
2023-01-09T13:58:08.736Z,62.13
2023-01-09T14:00:35.711Z,61.98
2023-01-09T14:03:08.654Z,62.04
2023-01-09T14:05:35.554Z,61.37
2023-01-09T14:08:24.074Z,61.71
2023-01-09T14:10:57.968Z,62.46
2023-01-09T14:13:29.113Z,61.90
2023-01-09T14:16:27.227Z,62.15
2023-01-09T14:19:00.351Z,62.04
2023-01-09T14:21:44.830Z,61.82
2023-01-09T14:24:27.220Z,61.23
2023-01-09T14:26:57.979Z,62.06
2023-01-09T14:29:44.874Z,62.76
2023-01-09T14:32:23.821Z,63.00
2023-01-09T14:34:57.792Z,62.21
2023-01-09T14:37:26.494Z,63.12
2023-01-09T14:39:53.735Z,63.01
2023-01-09T14:42:24.892Z,63.58
2023-01-09T14:45:02.603Z,64.05
2023-01-09T14:47:31.198Z,63.36
2023-01-09T14:50:19.139Z,63.01
2023-01-09T14:52:53.272Z,62.86
2023-01-09T14:55:30.195Z,62.72
2023-01-09T14:58:19.510Z,63.45
2023-01-09T15:00:49.161Z,62.50
2023-01-09T15:03:16.702Z,62.97
2023-01-09T15:05:45.775Z,62.53
2023-01-09T15:08:19.317Z,62.85
2023-01-09T15:10:48.230Z,62.33
2023-01-09T15:13:27.646Z,62.37
2023-01-09T15:15:55.222Z,61.46
2023-01-09T15:18:27.851Z,62.24
2023-01-09T15:20:59.340Z,62.90
2023-01-09T15:23:30.408Z,62.19
2023-01-09T15:26:12.451Z,62.54
2023-01-09T15:28:42.963Z,63.43
2023-01-09T15:31:16.834Z,62.67
2023-01-09T15:33:46.554Z,62.59
2023-01-09T15:36:23.576Z,62.11
2023-01-09T15:38:51.712Z,62.64
2023-01-09T15:41:59.901Z,62.02
2023-01-09T15:44:30.334Z,62.11
2023-01-09T15:46:59.502Z,62.41
2023-01-09T15:49:27.099Z,62.13
2023-01-09T15:51:54.831Z,61.76
2023-01-09T15:54:30.858Z,62.43
2023-01-09T15:57:25.952Z,62.34
2023-01-09T15:59:54.505Z,62.86
2023-01-09T16:02:42.033Z,62.74
2023-01-09T16:05:15.098Z,62.81
2023-01-09T16:07:49.404Z,62.40
2023-01-09T16:10:32.124Z,61.97
2023-01-09T16:12:59.509Z,62.85
2023-01-09T16:15:27.478Z,62.98
2023-01-09T16:18:16.234Z,62.85
2023-01-09T16:20:44.572Z,63.04
2023-01-09T16:23:32.126Z,63.69
2023-01-09T16:26:20.024Z,63.15
2023-01-09T16:28:47.039Z,62.28
2023-01-09T16:31:30.020Z,62.07
2023-01-09T16:34:06.045Z,62.97
2023-01-09T16:36:36.966Z,62.97
2023-01-09T16:39:04.613Z,63.30
2023-01-09T16:41:50.257Z,62.34
2023-01-09T16:44:19.422Z,63.17
2023-01-09T16:46:46.595Z,63.90
2023-01-09T16:49:21.603Z,63.28
2023-01-09T16:51:49.172Z,63.68
2023-01-09T16:54:17.125Z,63.25
2023-01-09T16:56:48.613Z,62.42
2023-01-09T16:59:20.716Z,62.88
2023-01-09T17:01:48.624Z,62.97
2023-01-09T17:04:17.417Z,63.51
2023-01-09T17:06:44.919Z,62.85
2023-01-09T17:09:13.658Z,63.27
2023-01-09T17:11:41.132Z,63.28
2023-01-09T17:14:11.594Z,63.21
2023-01-09T17:16:41.687Z,63.22
2023-01-09T17:19:17.253Z,64.50
2023-01-09T17:21:44.512Z,64.97
2023-01-09T17:24:30.079Z,63.45
2023-01-09T17:27:16.035Z,63.94
2023-01-09T17:29:44.477Z,63.78
2023-01-09T17:32:16.373Z,63.04
2023-01-09T17:34:43.744Z,63.21
2023-01-09T17:37:16.068Z,63.01
2023-01-09T17:39:44.362Z,63.04
2023-01-09T17:42:12.076Z,63.93
2023-01-09T17:44:39.072Z,64.21
2023-01-09T17:47:07.287Z,64.22
2023-01-09T17:49:34.547Z,64.41
2023-01-09T17:52:01.526Z,63.43
2023-01-09T17:54:28.594Z,63.80
2023-01-09T17:56:55.674Z,63.40
2023-01-09T17:59:22.653Z,63.79
2023-01-09T18:01:49.742Z,64.29
2023-01-09T18:04:16.764Z,64.08
2023-01-09T18:06:44.107Z,63.52
2023-01-09T18:09:15.457Z,64.03
2023-01-09T18:11:42.456Z,63.33
2023-01-09T18:14:14.477Z,63.65
2023-01-09T18:16:41.640Z,63.46
2023-01-09T18:19:09.951Z,63.72
2023-01-09T18:21:36.895Z,62.76
2023-01-09T18:24:04.038Z,63.13
2023-01-09T18:26:31.001Z,63.24
2023-01-09T18:29:00.392Z,63.55
2023-01-09T18:31:29.308Z,63.06
2023-01-09T18:33:58.889Z,62.73
2023-01-09T18:36:29.831Z,63.31
2023-01-09T18:38:59.757Z,62.84
2023-01-09T18:41:27.360Z,63.34
2023-01-09T18:43:57.146Z,62.96
2023-01-09T18:46:24.810Z,63.55
2023-01-09T18:48:56.561Z,62.57
2023-01-09T18:51:25.267Z,63.13
2023-01-09T18:53:52.912Z,62.96
2023-01-09T18:56:20.446Z,62.98
2023-01-09T18:58:48.344Z,62.49
2023-01-09T19:01:16.223Z,63.40
2023-01-09T19:03:43.375Z,62.96
2023-01-09T19:06:10.836Z,62.90
2023-01-09T19:08:38.123Z,62.37
2023-01-09T19:11:05.938Z,63.36
2023-01-09T19:13:35.776Z,63.27
2023-01-09T19:16:04.338Z,63.68
2023-01-09T19:18:38.765Z,63.48
2023-01-09T19:21:11.525Z,63.41
2023-01-09T19:23:38.529Z,63.39
2023-01-09T19:26:08.666Z,62.88
2023-01-09T19:28:36.617Z,63.53
2023-01-09T19:31:03.903Z,63.72
2023-01-09T19:33:30.994Z,63.16
2023-01-09T19:35:58.155Z,63.25
2023-01-09T19:38:26.880Z,62.45
2023-01-09T19:40:53.954Z,62.76
2023-01-09T19:43:26.873Z,62.51
2023-01-09T19:45:55.634Z,63.30
2023-01-09T19:48:23.982Z,62.90
2023-01-09T19:50:50.995Z,63.92
2023-01-09T19:53:18.511Z,62.71
2023-01-09T19:55:45.530Z,62.41
2023-01-09T19:58:12.543Z,63.83
2023-01-09T20:00:39.594Z,63.10
2023-01-09T20:03:06.621Z,63.55
2023-01-09T20:05:33.848Z,62.84
2023-01-09T20:08:00.879Z,62.82
2023-01-09T20:10:27.824Z,63.33
2023-01-09T20:12:54.957Z,64.51
2023-01-09T20:15:22.859Z,63.32
2023-01-09T20:17:49.874Z,63.21
2023-01-09T20:22:43.649Z,63.79
2023-01-09T20:25:10.598Z,63.99
2023-01-09T20:27:37.555Z,63.77
2023-01-09T20:30:05.509Z,64.49
2023-01-09T20:32:32.946Z,64.08
2023-01-09T20:35:00.883Z,64.73
2023-01-09T20:37:27.876Z,63.16
2023-01-09T20:39:54.807Z,63.88
2023-01-09T20:42:21.836Z,64.03
2023-01-09T20:44:48.859Z,63.67
2023-01-09T20:47:15.866Z,63.99
2023-01-09T20:49:42.853Z,63.49
2023-01-09T20:52:09.825Z,63.45
2023-01-09T20:54:41.101Z,63.25
2023-01-09T20:57:08.078Z,64.16
2023-01-09T20:59:35.034Z,62.80
2023-01-09T21:02:02.107Z,62.55
2023-01-09T21:04:31.251Z,63.89
2023-01-09T21:06:58.304Z,63.82
2023-01-09T21:09:26.257Z,63.79
2023-01-09T21:11:53.225Z,62.99
2023-01-09T21:14:20.306Z,63.74
2023-01-09T21:16:54.618Z,63.49
2023-01-09T21:19:22.831Z,63.47
2023-01-09T21:21:52.186Z,62.62
2023-01-09T21:24:20.027Z,63.34
2023-01-09T21:26:47.028Z,63.33
2023-01-09T21:29:14.037Z,63.62
2023-01-09T21:31:41.141Z,64.35
2023-01-09T21:34:08.533Z,64.42
2023-01-09T21:36:36.142Z,64.66
2023-01-09T21:39:07.847Z,65.07
2023-01-09T21:41:54.361Z,64.73
2023-01-09T21:44:39.956Z,64.34
2023-01-09T21:47:06.985Z,64.86
2023-01-09T21:49:36.191Z,65.04
2023-01-09T21:52:04.754Z,65.69
2023-01-09T21:54:33.055Z,66.45
2023-01-09T21:57:00.247Z,64.62
2023-01-09T21:59:27.664Z,64.74
2023-01-09T22:01:54.782Z,64.23
2023-01-09T22:04:30.676Z,65.09
2023-01-09T22:06:57.659Z,65.51
2023-01-09T22:09:24.744Z,65.11
2023-01-09T22:11:51.828Z,64.71
2023-01-09T22:14:19.966Z,64.88
2023-01-09T22:16:47.391Z,64.55
2023-01-09T22:19:18.159Z,64.95
2023-01-09T22:21:45.746Z,65.60
2023-01-09T22:24:14.363Z,65.15
2023-01-09T22:26:41.468Z,65.10
2023-01-09T22:29:08.659Z,64.20
2023-01-09T22:31:39.776Z,63.50
2023-01-09T22:34:07.095Z,64.88
2023-01-09T22:36:34.122Z,64.18
2023-01-09T22:39:01.494Z,65.13
2023-01-09T22:41:30.625Z,64.14
2023-01-09T22:43:58.602Z,64.68
2023-01-09T22:46:25.976Z,63.86
2023-01-09T22:48:52.962Z,64.88
2023-01-09T22:51:21.528Z,63.59
2023-01-09T22:53:49.384Z,63.83
2023-01-09T22:56:19.338Z,63.59
2023-01-09T22:58:58.543Z,63.44
2023-01-09T23:01:25.615Z,63.38
2023-01-09T23:03:52.754Z,64.53
2023-01-09T23:06:21.719Z,64.76
2023-01-09T23:08:51.010Z,63.68
2023-01-09T23:11:44.146Z,63.87
2023-01-09T23:14:11.701Z,63.31
2023-01-09T23:16:38.918Z,64.95
2023-01-09T23:19:14.733Z,64.23
2023-01-09T23:21:42.592Z,64.15
2023-01-09T23:24:10.105Z,64.42
2023-01-09T23:26:38.881Z,64.02
2023-01-09T23:29:07.358Z,64.48
2023-01-09T23:31:34.902Z,63.99
2023-01-09T23:34:02.377Z,64.09
2023-01-09T23:36:29.733Z,64.68
2023-01-09T23:38:56.900Z,63.84
2023-01-09T23:41:43.807Z,64.29
2023-01-09T23:44:10.821Z,64.15
2023-01-09T23:46:37.850Z,63.48
2023-01-09T23:49:04.805Z,64.07
2023-01-09T23:51:31.798Z,63.86
2023-01-09T23:53:58.947Z,64.82
2023-01-09T23:56:25.911Z,63.94
2023-01-09T23:58:52.914Z,63.56
